sensor_id;sensor_type;location;lat;lon;timestamp;P1;durP1;ratioP1;P2;durP2;ratioP2
6197;SDS011;3132;42.622;23.328;2022-09-19T00:01:46;8.63;;;8.33;;
6197;SDS011;3132;42.622;23.328;2022-09-19T00:04:14;9.03;;;8.73;;
6197;SDS011;3132;42.622;23.328;2022-09-19T00:06:47;9.80;;;9.43;;
6197;SDS011;3132;42.622;23.328;2022-09-19T00:09:16;9.63;;;9.23;;
6197;SDS011;3132;42.622;23.328;2022-09-19T00:11:44;9.30;;;9.00;;
6197;SDS011;3132;42.622;23.328;2022-09-19T00:14:12;9.77;;;9.37;;
6197;SDS011;3132;42.622;23.328;2022-09-19T00:16:40;9.20;;;8.90;;
6197;SDS011;3132;42.622;23.328;2022-09-19T00:19:14;9.53;;;9.13;;
6197;SDS011;3132;42.622;23.328;2022-09-19T00:21:43;8.97;;;8.37;;
6197;SDS011;3132;42.622;23.328;2022-09-19T00:24:11;9.43;;;9.07;;
6197;SDS011;3132;42.622;23.328;2022-09-19T00:26:57;9.47;;;9.17;;
6197;SDS011;3132;42.622;23.328;2022-09-19T00:29:24;9.00;;;8.70;;
6197;SDS011;3132;42.622;23.328;2022-09-19T00:31:50;9.37;;;9.07;;
6197;SDS011;3132;42.622;23.328;2022-09-19T00:34:16;9.50;;;9.20;;
6197;SDS011;3132;42.622;23.328;2022-09-19T00:36:43;9.00;;;8.60;;
6197;SDS011;3132;42.622;23.328;2022-09-19T00:39:10;9.97;;;9.57;;
6197;SDS011;3132;42.622;23.328;2022-09-19T00:41:37;9.43;;;9.03;;
6197;SDS011;3132;42.622;23.328;2022-09-19T00:46:46;8.90;;;8.60;;
6197;SDS011;3132;42.622;23.328;2022-09-19T00:49:15;9.37;;;8.97;;
6197;SDS011;3132;42.622;23.328;2022-09-19T00:51:48;9.77;;;9.47;;
6197;SDS011;3132;42.622;23.328;2022-09-19T00:54:16;9.77;;;9.37;;
6197;SDS011;3132;42.622;23.328;2022-09-19T00:56:46;9.00;;;8.60;;
6197;SDS011;3132;42.622;23.328;2022-09-19T00:59:14;9.03;;;8.73;;
6197;SDS011;3132;42.622;23.328;2022-09-19T01:01:41;9.70;;;9.40;;
6197;SDS011;3132;42.622;23.328;2022-09-19T01:04:13;9.97;;;9.57;;
6197;SDS011;3132;42.622;23.328;2022-09-19T01:06:51;9.03;;;8.73;;
6197;SDS011;3132;42.622;23.328;2022-09-19T01:15:28;9.00;;;8.70;;
6197;SDS011;3132;42.622;23.328;2022-09-19T01:17:56;9.77;;;9.47;;
6197;SDS011;3132;42.622;23.328;2022-09-19T01:29:15;9.90;;;9.50;;
6197;SDS011;3132;42.622;23.328;2022-09-19T01:31:44;9.77;;;9.37;;
6197;SDS011;3132;42.622;23.328;2022-09-19T01:34:24;9.97;;;9.57;;
6197;SDS011;3132;42.622;23.328;2022-09-19T01:39:30;9.80;;;9.40;;
6197;SDS011;3132;42.622;23.328;2022-09-19T01:41:59;8.60;;;8.30;;
6197;SDS011;3132;42.622;23.328;2022-09-19T01:44:26;9.83;;;9.43;;
6197;SDS011;3132;42.622;23.328;2022-09-19T01:58:43;8.80;;;8.50;;
6197;SDS011;3132;42.622;23.328;2022-09-19T02:01:20;10.00;;;9.47;;
6197;SDS011;3132;42.622;23.328;2022-09-19T02:04:03;9.77;;;9.40;;
6197;SDS011;3132;42.622;23.328;2022-09-19T02:06:37;9.77;;;9.37;;
6197;SDS011;3132;42.622;23.328;2022-09-19T02:09:22;11.13;;;10.43;;
6197;SDS011;3132;42.622;23.328;2022-09-19T02:11:55;9.40;;;9.10;;
6197;SDS011;3132;42.622;23.328;2022-09-19T02:14:25;9.30;;;8.87;;
6197;SDS011;3132;42.622;23.328;2022-09-19T02:19:33;9.27;;;8.97;;
6197;SDS011;3132;42.622;23.328;2022-09-19T02:22:08;9.23;;;8.93;;
6197;SDS011;3132;42.622;23.328;2022-09-19T02:24:49;9.73;;;9.17;;
6197;SDS011;3132;42.622;23.328;2022-09-19T02:27:21;9.07;;;8.77;;
6197;SDS011;3132;42.622;23.328;2022-09-19T02:29:54;9.73;;;9.33;;
6197;SDS011;3132;42.622;23.328;2022-09-19T02:32:23;9.60;;;9.30;;
6197;SDS011;3132;42.622;23.328;2022-09-19T02:34:50;9.57;;;9.17;;
6197;SDS011;3132;42.622;23.328;2022-09-19T02:37:54;9.70;;;9.37;;
6197;SDS011;3132;42.622;23.328;2022-09-19T02:40:22;10.23;;;9.83;;
6197;SDS011;3132;42.622;23.328;2022-09-19T02:43:03;8.90;;;8.60;;
6197;SDS011;3132;42.622;23.328;2022-09-19T02:45:50;9.50;;;9.20;;
6197;SDS011;3132;42.622;23.328;2022-09-19T02:50:52;10.47;;;9.90;;
6197;SDS011;3132;42.622;23.328;2022-09-19T02:53:25;10.43;;;9.93;;
6197;SDS011;3132;42.622;23.328;2022-09-19T02:55:57;9.83;;;9.23;;
6197;SDS011;3132;42.622;23.328;2022-09-19T02:58:26;9.70;;;9.30;;
6197;SDS011;3132;42.622;23.328;2022-09-19T03:00:57;8.90;;;8.57;;
6197;SDS011;3132;42.622;23.328;2022-09-19T03:06:17;10.03;;;9.70;;
6197;SDS011;3132;42.622;23.328;2022-09-19T03:08:46;9.40;;;9.10;;
6197;SDS011;3132;42.622;23.328;2022-09-19T03:11:15;10.67;;;9.53;;
6197;SDS011;3132;42.622;23.328;2022-09-19T03:13:45;10.27;;;9.67;;
6197;SDS011;3132;42.622;23.328;2022-09-19T03:16:15;10.13;;;9.53;;
6197;SDS011;3132;42.622;23.328;2022-09-19T03:18:44;10.47;;;9.97;;
6197;SDS011;3132;42.622;23.328;2022-09-19T03:21:12;9.23;;;8.93;;
6197;SDS011;3132;42.622;23.328;2022-09-19T03:23:39;9.73;;;9.33;;
6197;SDS011;3132;42.622;23.328;2022-09-19T03:26:08;9.60;;;9.20;;
6197;SDS011;3132;42.622;23.328;2022-09-19T03:28:37;8.60;;;8.30;;
6197;SDS011;3132;42.622;23.328;2022-09-19T03:31:03;9.77;;;9.37;;
6197;SDS011;3132;42.622;23.328;2022-09-19T03:33:30;8.97;;;8.67;;
6197;SDS011;3132;42.622;23.328;2022-09-19T03:35:55;9.77;;;9.37;;
6197;SDS011;3132;42.622;23.328;2022-09-19T03:38:27;8.93;;;8.57;;
6197;SDS011;3132;42.622;23.328;2022-09-19T03:40:55;9.90;;;9.50;;
6197;SDS011;3132;42.622;23.328;2022-09-19T03:43:21;10.27;;;9.77;;
6197;SDS011;3132;42.622;23.328;2022-09-19T03:45:46;9.27;;;8.97;;
6197;SDS011;3132;42.622;23.328;2022-09-19T03:48:11;10.40;;;10.00;;
6197;SDS011;3132;42.622;23.328;2022-09-19T03:50:37;8.93;;;8.43;;
6197;SDS011;3132;42.622;23.328;2022-09-19T03:53:02;9.37;;;8.97;;
6197;SDS011;3132;42.622;23.328;2022-09-19T03:55:28;8.87;;;8.57;;
6197;SDS011;3132;42.622;23.328;2022-09-19T03:57:53;9.70;;;9.13;;
6197;SDS011;3132;42.622;23.328;2022-09-19T04:00:18;9.10;;;8.80;;
6197;SDS011;3132;42.622;23.328;2022-09-19T04:02:44;8.93;;;8.63;;
6197;SDS011;3132;42.622;23.328;2022-09-19T04:05:09;9.87;;;8.77;;
6197;SDS011;3132;42.622;23.328;2022-09-19T04:07:38;9.80;;;8.93;;
6197;SDS011;3132;42.622;23.328;2022-09-19T04:10:04;9.03;;;8.53;;
6197;SDS011;3132;42.622;23.328;2022-09-19T04:12:31;8.77;;;8.47;;
6197;SDS011;3132;42.622;23.328;2022-09-19T04:14:58;9.43;;;9.03;;
6197;SDS011;3132;42.622;23.328;2022-09-19T04:17:23;8.90;;;8.50;;
6197;SDS011;3132;42.622;23.328;2022-09-19T04:19:49;9.27;;;8.90;;
6197;SDS011;3132;42.622;23.328;2022-09-19T04:22:15;10.30;;;9.80;;
6197;SDS011;3132;42.622;23.328;2022-09-19T04:24:43;9.80;;;9.30;;
6197;SDS011;3132;42.622;23.328;2022-09-19T04:27:08;9.90;;;9.50;;
6197;SDS011;3132;42.622;23.328;2022-09-19T04:29:37;9.70;;;9.17;;
6197;SDS011;3132;42.622;23.328;2022-09-19T04:32:03;9.77;;;9.37;;
6197;SDS011;3132;42.622;23.328;2022-09-19T04:34:29;8.63;;;8.33;;
6197;SDS011;3132;42.622;23.328;2022-09-19T04:36:55;10.20;;;9.70;;
6197;SDS011;3132;42.622;23.328;2022-09-19T04:39:23;9.73;;;9.00;;
6197;SDS011;3132;42.622;23.328;2022-09-19T04:41:49;9.13;;;8.73;;
6197;SDS011;3132;42.622;23.328;2022-09-19T04:44:17;9.70;;;9.20;;
6197;SDS011;3132;42.622;23.328;2022-09-19T04:46:43;10.07;;;9.57;;
6197;SDS011;3132;42.622;23.328;2022-09-19T04:49:10;8.40;;;8.03;;
6197;SDS011;3132;42.622;23.328;2022-09-19T04:51:36;9.80;;;9.30;;
6197;SDS011;3132;42.622;23.328;2022-09-19T04:54:02;10.40;;;9.70;;
6197;SDS011;3132;42.622;23.328;2022-09-19T04:56:28;9.80;;;9.20;;
6197;SDS011;3132;42.622;23.328;2022-09-19T04:58:53;12.07;;;11.50;;
6197;SDS011;3132;42.622;23.328;2022-09-19T05:01:19;10.10;;;9.63;;
6197;SDS011;3132;42.622;23.328;2022-09-19T05:03:44;10.07;;;9.47;;
6197;SDS011;3132;42.622;23.328;2022-09-19T05:06:12;10.53;;;9.67;;
6197;SDS011;3132;42.622;23.328;2022-09-19T05:08:38;10.70;;;10.30;;
6197;SDS011;3132;42.622;23.328;2022-09-19T05:11:05;9.43;;;9.07;;
6197;SDS011;3132;42.622;23.328;2022-09-19T05:13:33;10.20;;;9.40;;
6197;SDS011;3132;42.622;23.328;2022-09-19T05:16:03;10.07;;;9.60;;
6197;SDS011;3132;42.622;23.328;2022-09-19T05:18:29;10.03;;;9.33;;
6197;SDS011;3132;42.622;23.328;2022-09-19T05:21:01;10.00;;;9.30;;
6197;SDS011;3132;42.622;23.328;2022-09-19T05:23:28;10.57;;;10.03;;
6197;SDS011;3132;42.622;23.328;2022-09-19T05:25:54;10.80;;;10.27;;
6197;SDS011;3132;42.622;23.328;2022-09-19T05:28:23;11.77;;;11.07;;
6197;SDS011;3132;42.622;23.328;2022-09-19T05:30:51;10.50;;;10.00;;
6197;SDS011;3132;42.622;23.328;2022-09-19T05:33:19;10.00;;;9.53;;
6197;SDS011;3132;42.622;23.328;2022-09-19T05:35:49;11.33;;;10.83;;
6197;SDS011;3132;42.622;23.328;2022-09-19T05:38:15;10.87;;;10.27;;
6197;SDS011;3132;42.622;23.328;2022-09-19T05:40:41;11.90;;;11.20;;
6197;SDS011;3132;42.622;23.328;2022-09-19T05:43:07;14.43;;;13.17;;
6197;SDS011;3132;42.622;23.328;2022-09-19T05:45:32;12.27;;;11.53;;
6197;SDS011;3132;42.622;23.328;2022-09-19T05:47:59;11.33;;;10.70;;
6197;SDS011;3132;42.622;23.328;2022-09-19T05:50:25;12.00;;;11.23;;
6197;SDS011;3132;42.622;23.328;2022-09-19T05:52:51;12.63;;;11.83;;
6197;SDS011;3132;42.622;23.328;2022-09-19T05:55:36;11.60;;;10.93;;
6197;SDS011;3132;42.622;23.328;2022-09-19T05:58:01;11.67;;;10.77;;
6197;SDS011;3132;42.622;23.328;2022-09-19T06:00:27;12.67;;;11.77;;
6197;SDS011;3132;42.622;23.328;2022-09-19T06:05:22;13.03;;;11.97;;
6197;SDS011;3132;42.622;23.328;2022-09-19T06:07:48;13.70;;;12.00;;
6197;SDS011;3132;42.622;23.328;2022-09-19T06:10:15;12.50;;;11.43;;
6197;SDS011;3132;42.622;23.328;2022-09-19T06:12:41;12.50;;;11.67;;
6197;SDS011;3132;42.622;23.328;2022-09-19T06:15:06;12.80;;;11.63;;
6197;SDS011;3132;42.622;23.328;2022-09-19T06:17:32;12.80;;;11.93;;
6197;SDS011;3132;42.622;23.328;2022-09-19T06:19:57;12.07;;;11.17;;
6197;SDS011;3132;42.622;23.328;2022-09-19T06:22:23;11.57;;;10.73;;
6197;SDS011;3132;42.622;23.328;2022-09-19T06:24:48;12.23;;;11.57;;
6197;SDS011;3132;42.622;23.328;2022-09-19T06:27:14;13.17;;;11.80;;
6197;SDS011;3132;42.622;23.328;2022-09-19T06:29:39;11.57;;;10.97;;
6197;SDS011;3132;42.622;23.328;2022-09-19T06:32:04;11.83;;;11.00;;
6197;SDS011;3132;42.622;23.328;2022-09-19T06:34:30;11.80;;;11.20;;
6197;SDS011;3132;42.622;23.328;2022-09-19T06:36:55;11.53;;;10.90;;
6197;SDS011;3132;42.622;23.328;2022-09-19T06:39:21;11.90;;;11.17;;
6197;SDS011;3132;42.622;23.328;2022-09-19T06:41:46;11.17;;;10.37;;
6197;SDS011;3132;42.622;23.328;2022-09-19T06:44:12;11.37;;;10.60;;
6197;SDS011;3132;42.622;23.328;2022-09-19T06:46:38;12.03;;;11.17;;
6197;SDS011;3132;42.622;23.328;2022-09-19T06:49:04;11.77;;;11.17;;
6197;SDS011;3132;42.622;23.328;2022-09-19T06:51:32;12.33;;;11.03;;
6197;SDS011;3132;42.622;23.328;2022-09-19T06:53:58;10.97;;;10.13;;
6197;SDS011;3132;42.622;23.328;2022-09-19T06:56:24;10.93;;;9.93;;
6197;SDS011;3132;42.622;23.328;2022-09-19T06:58:49;10.37;;;9.87;;
6197;SDS011;3132;42.622;23.328;2022-09-19T07:01:14;11.07;;;10.37;;
6197;SDS011;3132;42.622;23.328;2022-09-19T07:03:40;10.53;;;9.93;;
6197;SDS011;3132;42.622;23.328;2022-09-19T07:06:07;10.17;;;9.57;;
6197;SDS011;3132;42.622;23.328;2022-09-19T07:08:32;10.53;;;10.03;;
6197;SDS011;3132;42.622;23.328;2022-09-19T07:10:58;10.70;;;10.17;;
6197;SDS011;3132;42.622;23.328;2022-09-19T07:13:23;11.17;;;9.93;;
6197;SDS011;3132;42.622;23.328;2022-09-19T07:15:49;11.97;;;9.27;;
6197;SDS011;3132;42.622;23.328;2022-09-19T07:18:14;10.60;;;10.10;;
6197;SDS011;3132;42.622;23.328;2022-09-19T07:20:40;9.77;;;9.27;;
6197;SDS011;3132;42.622;23.328;2022-09-19T07:23:09;9.73;;;9.23;;
6197;SDS011;3132;42.622;23.328;2022-09-19T07:25:38;9.20;;;8.60;;
6197;SDS011;3132;42.622;23.328;2022-09-19T07:28:05;10.47;;;9.77;;
6197;SDS011;3132;42.622;23.328;2022-09-19T07:30:34;9.40;;;9.00;;
6197;SDS011;3132;42.622;23.328;2022-09-19T07:33:01;9.10;;;8.60;;
6197;SDS011;3132;42.622;23.328;2022-09-19T07:35:29;9.77;;;9.17;;
6197;SDS011;3132;42.622;23.328;2022-09-19T07:37:59;10.70;;;8.80;;
6197;SDS011;3132;42.622;23.328;2022-09-19T07:40:25;9.77;;;9.23;;
6197;SDS011;3132;42.622;23.328;2022-09-19T07:42:50;11.20;;;10.70;;
6197;SDS011;3132;42.622;23.328;2022-09-19T07:45:16;9.27;;;8.87;;
6197;SDS011;3132;42.622;23.328;2022-09-19T07:47:46;9.17;;;8.77;;
6197;SDS011;3132;42.622;23.328;2022-09-19T07:50:13;9.77;;;9.27;;
6197;SDS011;3132;42.622;23.328;2022-09-19T07:52:41;8.90;;;8.40;;
6197;SDS011;3132;42.622;23.328;2022-09-19T07:55:08;10.73;;;10.00;;
6197;SDS011;3132;42.622;23.328;2022-09-19T07:57:35;10.40;;;9.50;;
6197;SDS011;3132;42.622;23.328;2022-09-19T08:00:01;9.63;;;9.10;;
6197;SDS011;3132;42.622;23.328;2022-09-19T08:02:28;9.87;;;9.27;;
6197;SDS011;3132;42.622;23.328;2022-09-19T08:04:53;9.27;;;8.77;;
6197;SDS011;3132;42.622;23.328;2022-09-19T08:07:18;9.77;;;9.17;;
6197;SDS011;3132;42.622;23.328;2022-09-19T08:09:44;10.47;;;9.87;;
6197;SDS011;3132;42.622;23.328;2022-09-19T08:12:09;10.37;;;9.83;;
6197;SDS011;3132;42.622;23.328;2022-09-19T08:14:37;9.70;;;9.20;;
6197;SDS011;3132;42.622;23.328;2022-09-19T08:17:02;9.63;;;8.93;;
6197;SDS011;3132;42.622;23.328;2022-09-19T08:19:28;10.33;;;9.83;;
6197;SDS011;3132;42.622;23.328;2022-09-19T08:21:53;10.00;;;9.47;;
6197;SDS011;3132;42.622;23.328;2022-09-19T08:24:19;10.20;;;9.70;;
6197;SDS011;3132;42.622;23.328;2022-09-19T08:26:44;10.27;;;9.67;;
6197;SDS011;3132;42.622;23.328;2022-09-19T08:29:10;9.97;;;9.30;;
6197;SDS011;3132;42.622;23.328;2022-09-19T08:31:35;9.27;;;8.87;;
6197;SDS011;3132;42.622;23.328;2022-09-19T08:34:01;10.03;;;9.43;;
6197;SDS011;3132;42.622;23.328;2022-09-19T08:36:27;10.60;;;9.93;;
6197;SDS011;3132;42.622;23.328;2022-09-19T08:38:53;10.13;;;9.43;;
6197;SDS011;3132;42.622;23.328;2022-09-19T08:59:56;9.50;;;8.77;;
6197;SDS011;3132;42.622;23.328;2022-09-19T09:05:15;10.03;;;9.43;;
6197;SDS011;3132;42.622;23.328;2022-09-19T09:07:49;10.73;;;10.00;;
6197;SDS011;3132;42.622;23.328;2022-09-19T09:19:03;9.80;;;9.27;;
6197;SDS011;3132;42.622;23.328;2022-09-19T09:24:18;9.90;;;9.37;;
6197;SDS011;3132;42.622;23.328;2022-09-19T09:26:52;9.87;;;9.17;;
6197;SDS011;3132;42.622;23.328;2022-09-19T09:29:24;9.90;;;9.30;;
6197;SDS011;3132;42.622;23.328;2022-09-19T09:35:00;9.57;;;9.07;;
6197;SDS011;3132;42.622;23.328;2022-09-19T09:37:35;9.30;;;9.00;;
6197;SDS011;3132;42.622;23.328;2022-09-19T09:40:17;9.37;;;8.67;;
6197;SDS011;3132;42.622;23.328;2022-09-19T09:43:07;9.83;;;9.33;;
6197;SDS011;3132;42.622;23.328;2022-09-19T09:45:40;9.33;;;8.77;;
6197;SDS011;3132;42.622;23.328;2022-09-19T09:48:08;9.43;;;8.93;;
6197;SDS011;3132;42.622;23.328;2022-09-19T09:59:23;9.97;;;9.47;;
6197;SDS011;3132;42.622;23.328;2022-09-19T10:05:30;10.00;;;9.40;;
6197;SDS011;3132;42.622;23.328;2022-09-19T10:11:13;10.07;;;9.23;;
6197;SDS011;3132;42.622;23.328;2022-09-19T10:13:45;10.10;;;9.47;;
6197;SDS011;3132;42.622;23.328;2022-09-19T10:16:23;10.93;;;10.00;;
6197;SDS011;3132;42.622;23.328;2022-09-19T10:18:51;9.90;;;9.30;;
6197;SDS011;3132;42.622;23.328;2022-09-19T10:21:22;11.33;;;10.67;;
6197;SDS011;3132;42.622;23.328;2022-09-19T10:23:47;9.67;;;8.90;;
6197;SDS011;3132;42.622;23.328;2022-09-19T10:26:14;9.90;;;9.27;;
6197;SDS011;3132;42.622;23.328;2022-09-19T10:28:47;9.07;;;8.57;;
6197;SDS011;3132;42.622;23.328;2022-09-19T10:31:21;9.27;;;8.77;;
6197;SDS011;3132;42.622;23.328;2022-09-19T10:33:48;9.33;;;8.93;;
6197;SDS011;3132;42.622;23.328;2022-09-19T10:36:19;9.87;;;9.23;;
6197;SDS011;3132;42.622;23.328;2022-09-19T10:38:51;9.50;;;9.00;;
6197;SDS011;3132;42.622;23.328;2022-09-19T10:41:24;9.90;;;9.33;;
6197;SDS011;3132;42.622;23.328;2022-09-19T10:43:53;9.23;;;8.70;;
6197;SDS011;3132;42.622;23.328;2022-09-19T10:46:22;9.90;;;9.20;;
6197;SDS011;3132;42.622;23.328;2022-09-19T10:49:00;8.90;;;8.30;;
6197;SDS011;3132;42.622;23.328;2022-09-19T10:51:37;9.47;;;8.97;;
6197;SDS011;3132;42.622;23.328;2022-09-19T10:54:11;9.67;;;9.03;;
6197;SDS011;3132;42.622;23.328;2022-09-19T10:56:46;8.67;;;8.13;;
6197;SDS011;3132;42.622;23.328;2022-09-19T11:01:38;8.67;;;8.20;;
6197;SDS011;3132;42.622;23.328;2022-09-19T11:04:05;8.50;;;8.13;;
6197;SDS011;3132;42.622;23.328;2022-09-19T11:06:39;9.13;;;8.43;;
6197;SDS011;3132;42.622;23.328;2022-09-19T11:09:25;9.37;;;8.83;;
6197;SDS011;3132;42.622;23.328;2022-09-19T11:11:54;8.93;;;8.47;;
6197;SDS011;3132;42.622;23.328;2022-09-19T11:14:37;9.73;;;9.13;;
6197;SDS011;3132;42.622;23.328;2022-09-19T11:33:35;9.23;;;8.73;;
6197;SDS011;3132;42.622;23.328;2022-09-19T11:36:14;9.13;;;8.63;;
6197;SDS011;3132;42.622;23.328;2022-09-19T11:45:12;8.77;;;8.30;;
6197;SDS011;3132;42.622;23.328;2022-09-19T11:56:15;8.40;;;8.00;;
6197;SDS011;3132;42.622;23.328;2022-09-19T12:15:40;8.43;;;7.77;;
6197;SDS011;3132;42.622;23.328;2022-09-19T12:18:24;9.17;;;8.60;;
6197;SDS011;3132;42.622;23.328;2022-09-19T12:20:55;9.00;;;8.60;;
6197;SDS011;3132;42.622;23.328;2022-09-19T12:26:23;8.80;;;8.30;;
6197;SDS011;3132;42.622;23.328;2022-09-19T12:28:58;9.27;;;8.87;;
6197;SDS011;3132;42.622;23.328;2022-09-19T12:31:34;8.30;;;7.90;;
6197;SDS011;3132;42.622;23.328;2022-09-19T12:34:08;9.13;;;8.50;;
6197;SDS011;3132;42.622;23.328;2022-09-19T12:36:50;8.10;;;7.73;;
6197;SDS011;3132;42.622;23.328;2022-09-19T12:50:23;8.93;;;8.43;;
6197;SDS011;3132;42.622;23.328;2022-09-19T12:55:58;8.90;;;8.13;;
6197;SDS011;3132;42.622;23.328;2022-09-19T13:01:17;9.73;;;8.87;;
6197;SDS011;3132;42.622;23.328;2022-09-19T13:03:50;8.13;;;7.70;;
6197;SDS011;3132;42.622;23.328;2022-09-19T13:06:27;8.83;;;8.20;;
6197;SDS011;3132;42.622;23.328;2022-09-19T13:09:05;8.97;;;8.43;;
6197;SDS011;3132;42.622;23.328;2022-09-19T13:11:38;8.23;;;7.73;;
6197;SDS011;3132;42.622;23.328;2022-09-19T13:16:56;8.17;;;7.60;;
6197;SDS011;3132;42.622;23.328;2022-09-19T13:19:43;9.37;;;8.63;;
6197;SDS011;3132;42.622;23.328;2022-09-19T13:22:28;8.57;;;7.90;;
6197;SDS011;3132;42.622;23.328;2022-09-19T13:25:14;8.20;;;7.80;;
6197;SDS011;3132;42.622;23.328;2022-09-19T13:27:43;9.03;;;8.53;;
6197;SDS011;3132;42.622;23.328;2022-09-19T13:33:20;8.50;;;8.10;;
6197;SDS011;3132;42.622;23.328;2022-09-19T13:35:49;8.63;;;8.13;;
6197;SDS011;3132;42.622;23.328;2022-09-19T13:38:21;8.23;;;7.60;;
6197;SDS011;3132;42.622;23.328;2022-09-19T13:41:01;8.47;;;7.60;;
6197;SDS011;3132;42.622;23.328;2022-09-19T13:43:37;10.23;;;9.57;;
6197;SDS011;3132;42.622;23.328;2022-09-19T13:47:00;8.63;;;8.20;;
6197;SDS011;3132;42.622;23.328;2022-09-19T13:52:14;8.83;;;8.20;;
6197;SDS011;3132;42.622;23.328;2022-09-19T13:57:23;8.53;;;8.10;;
6197;SDS011;3132;42.622;23.328;2022-09-19T13:59:53;8.17;;;7.77;;
6197;SDS011;3132;42.622;23.328;2022-09-19T14:02:23;8.57;;;8.07;;
6197;SDS011;3132;42.622;23.328;2022-09-19T14:07:47;9.07;;;8.30;;
6197;SDS011;3132;42.622;23.328;2022-09-19T14:10:23;9.40;;;8.73;;
6197;SDS011;3132;42.622;23.328;2022-09-19T14:13:02;8.57;;;8.03;;
6197;SDS011;3132;42.622;23.328;2022-09-19T14:21:01;8.00;;;7.50;;
6197;SDS011;3132;42.622;23.328;2022-09-19T14:23:32;7.90;;;7.50;;
6197;SDS011;3132;42.622;23.328;2022-09-19T14:47:41;8.33;;;7.60;;
6197;SDS011;3132;42.622;23.328;2022-09-19T14:52:35;7.93;;;7.63;;
6197;SDS011;3132;42.622;23.328;2022-09-19T14:55:05;7.70;;;7.40;;
6197;SDS011;3132;42.622;23.328;2022-09-19T14:57:45;8.17;;;7.67;;
6197;SDS011;3132;42.622;23.328;2022-09-19T15:00:12;8.30;;;7.80;;
6197;SDS011;3132;42.622;23.328;2022-09-19T15:02:44;8.13;;;7.70;;
6197;SDS011;3132;42.622;23.328;2022-09-19T15:05:17;8.70;;;8.20;;
6197;SDS011;3132;42.622;23.328;2022-09-19T15:07:47;8.00;;;7.40;;
6197;SDS011;3132;42.622;23.328;2022-09-19T15:15:48;8.83;;;8.23;;
6197;SDS011;3132;42.622;23.328;2022-09-19T15:20:50;8.17;;;7.00;;
6197;SDS011;3132;42.622;23.328;2022-09-19T15:23:20;8.83;;;8.37;;
6197;SDS011;3132;42.622;23.328;2022-09-19T15:25:47;8.47;;;8.07;;
6197;SDS011;3132;42.622;23.328;2022-09-19T15:28:22;9.03;;;8.47;;
6197;SDS011;3132;42.622;23.328;2022-09-19T15:30:52;8.00;;;7.60;;
6197;SDS011;3132;42.622;23.328;2022-09-19T15:33:24;8.60;;;8.20;;
6197;SDS011;3132;42.622;23.328;2022-09-19T15:35:52;8.00;;;7.50;;
6197;SDS011;3132;42.622;23.328;2022-09-19T15:40:56;8.27;;;7.87;;
6197;SDS011;3132;42.622;23.328;2022-09-19T15:43:24;10.00;;;9.47;;
6197;SDS011;3132;42.622;23.328;2022-09-19T15:45:51;8.00;;;7.60;;
6197;SDS011;3132;42.622;23.328;2022-09-19T15:50:59;8.93;;;8.13;;
6197;SDS011;3132;42.622;23.328;2022-09-19T15:53:28;8.93;;;8.53;;
6197;SDS011;3132;42.622;23.328;2022-09-19T15:56:12;9.63;;;9.10;;
6197;SDS011;3132;42.622;23.328;2022-09-19T15:58:45;13.60;;;12.20;;
6197;SDS011;3132;42.622;23.328;2022-09-19T16:04:01;10.50;;;9.90;;
6197;SDS011;3132;42.622;23.328;2022-09-19T16:06:44;9.63;;;9.13;;
6197;SDS011;3132;42.622;23.328;2022-09-19T16:12:02;9.30;;;8.90;;
6197;SDS011;3132;42.622;23.328;2022-09-19T16:14:45;9.30;;;8.60;;
6197;SDS011;3132;42.622;23.328;2022-09-19T16:17:12;9.03;;;8.63;;
6197;SDS011;3132;42.622;23.328;2022-09-19T16:19:47;9.23;;;8.50;;
6197;SDS011;3132;42.622;23.328;2022-09-19T16:22:18;8.77;;;8.37;;
6197;SDS011;3132;42.622;23.328;2022-09-19T16:24:47;11.30;;;8.90;;
6197;SDS011;3132;42.622;23.328;2022-09-19T16:27:20;8.73;;;8.23;;
6197;SDS011;3132;42.622;23.328;2022-09-19T16:29:49;9.20;;;8.60;;
6197;SDS011;3132;42.622;23.328;2022-09-19T16:32:16;9.43;;;8.93;;
6197;SDS011;3132;42.622;23.328;2022-09-19T16:34:50;12.57;;;11.97;;
6197;SDS011;3132;42.622;23.328;2022-09-19T16:37:38;10.20;;;9.57;;
6197;SDS011;3132;42.622;23.328;2022-09-19T16:40:22;8.57;;;8.17;;
6197;SDS011;3132;42.622;23.328;2022-09-19T16:42:52;9.03;;;8.50;;
6197;SDS011;3132;42.622;23.328;2022-09-19T16:45:18;8.80;;;8.40;;
6197;SDS011;3132;42.622;23.328;2022-09-19T16:47:45;8.90;;;8.50;;
6197;SDS011;3132;42.622;23.328;2022-09-19T16:50:13;9.57;;;9.07;;
6197;SDS011;3132;42.622;23.328;2022-09-19T16:52:45;10.80;;;10.23;;
6197;SDS011;3132;42.622;23.328;2022-09-19T16:55:17;11.90;;;11.10;;
6197;SDS011;3132;42.622;23.328;2022-09-19T16:57:47;11.47;;;10.43;;
6197;SDS011;3132;42.622;23.328;2022-09-19T17:00:14;10.57;;;9.97;;
6197;SDS011;3132;42.622;23.328;2022-09-19T17:02:40;9.37;;;8.87;;
6197;SDS011;3132;42.622;23.328;2022-09-19T17:05:11;9.37;;;8.97;;
6197;SDS011;3132;42.622;23.328;2022-09-19T17:07:40;8.43;;;8.13;;
6197;SDS011;3132;42.622;23.328;2022-09-19T17:10:06;8.60;;;8.20;;
6197;SDS011;3132;42.622;23.328;2022-09-19T17:12:33;8.70;;;8.20;;
6197;SDS011;3132;42.622;23.328;2022-09-19T17:14:59;8.00;;;7.70;;
6197;SDS011;3132;42.622;23.328;2022-09-19T17:17:25;9.03;;;8.63;;
6197;SDS011;3132;42.622;23.328;2022-09-19T17:19:50;8.17;;;7.87;;
6197;SDS011;3132;42.622;23.328;2022-09-19T17:22:16;8.07;;;7.67;;
6197;SDS011;3132;42.622;23.328;2022-09-19T17:24:43;8.50;;;8.13;;
6197;SDS011;3132;42.622;23.328;2022-09-19T17:27:10;8.83;;;8.43;;
6197;SDS011;3132;42.622;23.328;2022-09-19T17:29:35;8.43;;;8.13;;
6197;SDS011;3132;42.622;23.328;2022-09-19T17:32:01;8.93;;;8.63;;
6197;SDS011;3132;42.622;23.328;2022-09-19T17:34:28;8.13;;;7.83;;
6197;SDS011;3132;42.622;23.328;2022-09-19T17:36:53;9.37;;;8.87;;
6197;SDS011;3132;42.622;23.328;2022-09-19T17:39:18;8.83;;;8.43;;
6197;SDS011;3132;42.622;23.328;2022-09-19T17:41:44;10.03;;;9.27;;
6197;SDS011;3132;42.622;23.328;2022-09-19T17:44:09;8.33;;;8.03;;
6197;SDS011;3132;42.622;23.328;2022-09-19T17:46:35;8.67;;;8.27;;
6197;SDS011;3132;42.622;23.328;2022-09-19T17:49:01;8.63;;;8.27;;
6197;SDS011;3132;42.622;23.328;2022-09-19T17:51:27;7.93;;;7.63;;
6197;SDS011;3132;42.622;23.328;2022-09-19T17:53:53;8.13;;;7.83;;
6197;SDS011;3132;42.622;23.328;2022-09-19T17:56:20;8.93;;;8.53;;
6197;SDS011;3132;42.622;23.328;2022-09-19T17:58:48;9.10;;;8.70;;
6197;SDS011;3132;42.622;23.328;2022-09-19T18:01:18;8.27;;;7.87;;
6197;SDS011;3132;42.622;23.328;2022-09-19T18:04:03;9.30;;;8.97;;
6197;SDS011;3132;42.622;23.328;2022-09-19T18:06:29;9.03;;;8.40;;
6197;SDS011;3132;42.622;23.328;2022-09-19T18:08:58;8.37;;;8.07;;
6197;SDS011;3132;42.622;23.328;2022-09-19T18:11:24;9.43;;;9.03;;
6197;SDS011;3132;42.622;23.328;2022-09-19T18:13:50;8.63;;;8.33;;
6197;SDS011;3132;42.622;23.328;2022-09-19T18:16:18;10.23;;;9.73;;
6197;SDS011;3132;42.622;23.328;2022-09-19T18:18:46;10.00;;;9.30;;
6197;SDS011;3132;42.622;23.328;2022-09-19T18:21:12;9.77;;;8.90;;
6197;SDS011;3132;42.622;23.328;2022-09-19T18:23:37;9.93;;;9.43;;
6197;SDS011;3132;42.622;23.328;2022-09-19T18:26:05;9.37;;;8.77;;
6197;SDS011;3132;42.622;23.328;2022-09-19T18:28:32;9.77;;;9.20;;
6197;SDS011;3132;42.622;23.328;2022-09-19T18:31:03;9.53;;;8.83;;
6197;SDS011;3132;42.622;23.328;2022-09-19T18:33:30;9.80;;;9.30;;
6197;SDS011;3132;42.622;23.328;2022-09-19T18:36:01;9.17;;;8.77;;
6197;SDS011;3132;42.622;23.328;2022-09-19T18:38:30;9.80;;;9.23;;
6197;SDS011;3132;42.622;23.328;2022-09-19T18:40:56;10.20;;;9.30;;
6197;SDS011;3132;42.622;23.328;2022-09-19T18:43:24;13.80;;;12.90;;
6197;SDS011;3132;42.622;23.328;2022-09-19T18:45:57;8.80;;;8.30;;
6197;SDS011;3132;42.622;23.328;2022-09-19T18:48:26;9.03;;;8.53;;
6197;SDS011;3132;42.622;23.328;2022-09-19T18:50:51;8.90;;;8.43;;
6197;SDS011;3132;42.622;23.328;2022-09-19T18:53:17;9.57;;;9.17;;
6197;SDS011;3132;42.622;23.328;2022-09-19T18:55:42;9.63;;;9.07;;
6197;SDS011;3132;42.622;23.328;2022-09-19T18:58:07;9.33;;;9.00;;